Time;durP1;ratioP1;P1;durP2;ratioP2;P2;SDS_P1;SDS_P2;PMS_P1;PMS_P2;Temp;Humidity;BMP_temperature;BMP_pressure;BME280_temperature;BME280_humidity;BME280_pressure;Samples;Min_cycle;Max_cycle;Signal;HPM_P1;HPM_P2
2022/07/16 00:02:13;;;;;;;0.20;0.20;;;18.60;93.50;;;;;;4765785;30;20088;-88
2022/07/16 00:04:40;;;;;;;0.40;0.40;;;18.60;93.70;;;;;;4755963;30;20071;-88
2022/07/16 00:07:07;;;;;;;1.48;0.50;;;18.60;93.80;;;;;;4768960;30;20441;-88
2022/07/16 00:09:34;;;;;;;0.73;0.50;;;18.50;94.10;;;;;;4769037;30;20131;-88
2022/07/16 00:12:02;;;;;;;0.73;0.52;;;18.50;94.20;;;;;;4769097;30;20063;-88
2022/07/16 00:14:29;;;;;;;0.50;0.50;;;18.50;94.20;;;;;;4766307;30;20113;-87
2022/07/16 00:16:56;;;;;;;0.28;0.20;;;18.50;94.40;;;;;;4768127;30;20503;-88
2022/07/16 00:19:23;;;;;;;0.28;0.20;;;18.50;94.50;;;;;;4783527;29;20193;-88
2022/07/16 00:21:52;;;;;;;0.30;0.30;;;18.40;94.50;;;;;;4769500;30;20066;-88
2022/07/16 00:24:19;;;;;;;0.25;0.25;;;18.40;94.70;;;;;;4768649;30;20059;-88
2022/07/16 00:26:47;;;;;;;0.30;0.30;;;18.40;94.80;;;;;;4755239;30;20069;-88
2022/07/16 00:29:15;;;;;;;0.22;0.20;;;18.30;95.00;;;;;;4754484;30;20055;-88
2022/07/16 00:31:42;;;;;;;0.20;0.20;;;18.30;95.20;;;;;;4753770;30;20381;-87
2022/07/16 00:34:10;;;;;;;0.25;0.20;;;18.30;95.30;;;;;;4754133;30;20063;-88
2022/07/16 00:36:38;;;;;;;0.10;0.10;;;18.20;95.50;;;;;;4754913;30;20086;-88
2022/07/16 00:39:05;;;;;;;0.93;0.38;;;18.10;95.70;;;;;;4753090;30;20059;-88
2022/07/16 00:41:33;;;;;;;0.32;0.30;;;18.10;96.00;;;;;;4753011;30;20063;-88
2022/07/16 00:44:02;;;;;;;0.75;0.40;;;18.10;96.20;;;;;;4752892;30;20063;-88
2022/07/16 00:46:29;;;;;;;0.10;0.10;;;18.10;96.30;;;;;;4763998;30;20063;-88
2022/07/16 00:48:56;;;;;;;0.30;0.20;;;18.00;96.50;;;;;;4751794;30;20062;-88
2022/07/16 00:51:24;;;;;;;0.20;0.20;;;18.00;96.70;;;;;;4751780;30;20059;-88
2022/07/16 00:53:51;;;;;;;0.20;0.20;;;17.90;96.80;;;;;;4751527;30;20059;-88
2022/07/16 00:56:18;;;;;;;0.20;0.20;;;17.90;97.10;;;;;;4751870;30;20338;-87
2022/07/16 00:58:46;;;;;;;0.40;0.40;;;17.90;97.20;;;;;;4766055;30;20128;-88
2022/07/16 01:01:13;;;;;;;0.50;0.30;;;17.80;97.40;;;;;;4766169;30;20059;-87
2022/07/16 01:03:41;;;;;;;0.45;0.30;;;17.70;97.60;;;;;;4766923;30;20056;-88
2022/07/16 01:06:08;;;;;;;0.20;0.20;;;17.80;97.80;;;;;;4766824;30;20055;-88
2022/07/16 01:08:37;;;;;;;0.40;0.20;;;17.70;97.90;;;;;;4751474;30;20058;-88
2022/07/16 01:11:05;;;;;;;0.30;0.30;;;17.70;98.20;;;;;;4767113;30;20328;-88
2022/07/16 01:13:33;;;;;;;0.40;0.40;;;17.60;98.40;;;;;;4751574;30;20059;-87
2022/07/16 01:16:01;;;;;;;0.17;0.17;;;17.60;98.60;;;;;;4751172;30;20067;-87
2022/07/16 01:18:30;;;;;;;0.10;0.10;;;17.60;98.80;;;;;;4753197;30;20055;-86
2022/07/16 01:20:57;;;;;;;0.20;0.20;;;17.50;99.00;;;;;;4753579;30;20063;-88
2022/07/16 01:23:25;;;;;;;0.20;0.20;;;17.50;99.10;;;;;;4752718;30;20055;-88
2022/07/16 01:25:52;;;;;;;0.20;0.20;;;17.50;99.30;;;;;;4753346;30;20070;-87
2022/07/16 01:28:19;;;;;;;0.52;0.30;;;17.40;99.50;;;;;;4767578;30;20059;-87
2022/07/16 01:30:46;;;;;;;0.38;0.20;;;17.40;99.90;;;;;;4767217;30;20059;-87
2022/07/16 01:33:21;;;;;;;0.20;0.20;;;17.40;99.90;;;;;;4752443;30;20061;-88
2022/07/16 01:35:49;;;;;;;0.50;0.30;;;17.40;99.90;;;;;;4763978;30;20063;-89
2022/07/16 01:38:24;;;;;;;0.70;0.38;;;17.40;99.90;;;;;;4744977;30;20161;-87
2022/07/16 01:40:52;;;;;;;0.40;0.35;;;17.30;99.90;;;;;;4751109;30;20063;-88
2022/07/16 01:43:21;;;;;;;0.20;0.20;;;17.30;99.90;;;;;;4766725;30;20059;-88
2022/07/16 01:45:48;;;;;;;0.20;0.20;;;17.30;99.90;;;;;;4751743;30;20055;-88
2022/07/16 01:48:15;;;;;;;0.20;0.15;;;17.30;99.90;;;;;;4766434;30;20059;-88
2022/07/16 01:50:43;;;;;;;0.13;0.13;;;17.30;99.90;;;;;;4750819;30;20059;-88
2022/07/16 01:53:10;;;;;;;0.40;0.40;;;17.30;99.90;;;;;;4748957;30;20534;-88
2022/07/16 01:55:37;;;;;;;0.20;0.20;;;17.30;99.90;;;;;;4742768;30;20059;-88
2022/07/16 01:58:05;;;;;;;0.10;0.10;;;17.20;99.90;;;;;;4753766;30;20052;-88
2022/07/16 02:00:32;;;;;;;0.30;0.30;;;17.10;99.90;;;;;;4747361;30;20499;-88
2022/07/16 02:02:59;;;;;;;0.30;0.25;;;17.10;99.90;;;;;;4748332;30;20059;-88
2022/07/16 02:05:27;;;;;;;0.30;0.30;;;17.00;99.90;;;;;;4751801;30;20063;-88
2022/07/16 02:37:29;;;;;;;1.20;0.40;;;16.70;99.90;;;;;;5231836;24;20423;-86
2022/07/16 02:39:56;;;;;;;0.45;0.45;;;16.60;99.90;;;;;;4770399;29;20051;-86
2022/07/16 02:42:23;;;;;;;0.35;0.35;;;16.50;99.90;;;;;;4773045;29;20066;-86
2022/07/16 02:44:50;;;;;;;0.35;0.35;;;16.50;99.90;;;;;;4771879;29;20063;-86
2022/07/16 02:47:17;;;;;;;0.38;0.38;;;16.60;99.90;;;;;;4761248;30;20104;-86
2022/07/16 02:49:44;;;;;;;0.60;0.40;;;16.60;99.90;;;;;;4764783;30;20047;-86
2022/07/16 02:52:11;;;;;;;0.45;0.40;;;16.60;99.90;;;;;;4782186;29;20082;-87
2022/07/16 02:54:38;;;;;;;0.45;0.40;;;16.50;99.90;;;;;;4755210;29;20550;-87
2022/07/16 02:57:05;;;;;;;0.50;0.40;;;16.50;99.90;;;;;;4776696;30;20092;-87
2022/07/16 02:59:33;;;;;;;0.35;0.35;;;16.50;99.90;;;;;;4767386;29;20555;-87
2022/07/16 03:02:00;;;;;;;0.30;0.20;;;16.50;99.90;;;;;;4771579;29;20490;-87
2022/07/16 03:04:27;;;;;;;0.47;0.40;;;16.50;99.90;;;;;;4772401;29;20067;-87
2022/07/16 03:06:54;;;;;;;0.45;0.30;;;16.50;99.90;;;;;;4771727;29;20062;-87
2022/07/16 03:09:21;;;;;;;0.95;0.52;;;16.50;99.90;;;;;;4769211;30;20557;-87
2022/07/16 03:11:48;;;;;;;0.35;0.35;;;16.50;99.90;;;;;;4769383;30;20051;-87
2022/07/16 03:14:15;;;;;;;0.75;0.30;;;16.40;99.90;;;;;;4768673;30;20059;-86
2022/07/16 03:16:42;;;;;;;0.50;0.43;;;16.30;99.90;;;;;;4766172;30;20055;-86
2022/07/16 03:19:09;;;;;;;0.40;0.30;;;16.20;99.90;;;;;;4783047;29;20165;-86
2022/07/16 03:21:37;;;;;;;0.73;0.40;;;16.10;99.90;;;;;;4770632;30;20089;-87
2022/07/16 03:24:04;;;;;;;0.75;0.30;;;16.10;99.90;;;;;;4769440;30;20051;-86
2022/07/16 03:26:31;;;;;;;0.65;0.50;;;16.10;99.90;;;;;;4763655;30;20108;-86
2022/07/16 03:28:58;;;;;;;0.40;0.38;;;16.10;99.90;;;;;;4777177;29;20055;-86
2022/07/16 03:31:25;;;;;;;0.45;0.40;;;16.10;99.90;;;;;;4775139;29;20062;-86
2022/07/16 03:33:52;;;;;;;0.22;0.22;;;16.00;99.90;;;;;;4784695;29;20093;-85
2022/07/16 03:36:19;;;;;;;0.40;0.40;;;16.00;99.90;;;;;;4787816;29;20050;-86
2022/07/16 03:41:45;;;;;;;0.30;0.30;;;15.90;99.90;;;;;;4771892;29;20062;-87
2022/07/16 03:44:12;;;;;;;0.60;0.35;;;15.90;99.90;;;;;;4785556;29;20062;-87
2022/07/16 03:46:40;;;;;;;0.57;0.50;;;15.90;99.90;;;;;;4776705;30;20051;-87
2022/07/16 03:49:07;;;;;;;0.32;0.30;;;15.90;99.90;;;;;;4777719;29;20116;-86
2022/07/16 03:51:34;;;;;;;0.93;0.40;;;15.90;99.90;;;;;;4785816;29;20055;-87
2022/07/16 03:54:02;;;;;;;1.17;0.47;;;16.00;99.90;;;;;;4785170;29;20051;-87
2022/07/16 03:56:30;;;;;;;0.38;0.38;;;15.90;99.90;;;;;;4778527;30;20055;-86
2022/07/16 03:58:59;;;;;;;0.45;0.38;;;15.90;99.90;;;;;;4774470;29;20061;-87
2022/07/16 04:01:27;;;;;;;0.32;0.28;;;15.90;99.90;;;;;;4766617;30;20059;-87
2022/07/16 04:03:54;;;;;;;0.45;0.32;;;15.90;99.90;;;;;;4752989;30;20059;-87
2022/07/16 04:06:21;;;;;;;0.60;0.28;;;15.90;99.90;;;;;;4764809;29;20065;-86
2022/07/16 04:08:48;;;;;;;0.22;0.22;;;15.90;99.90;;;;;;4784225;29;20149;-87
2022/07/16 04:11:15;;;;;;;0.50;0.30;;;15.80;99.90;;;;;;4763853;29;20128;-86
2022/07/16 04:13:42;;;;;;;0.60;0.40;;;15.90;99.90;;;;;;4767495;29;20507;-87
2022/07/16 04:16:10;;;;;;;0.80;0.50;;;15.80;99.90;;;;;;4765803;30;20059;-87
2022/07/16 04:18:37;;;;;;;0.35;0.35;;;15.90;99.90;;;;;;4772652;29;20129;-86
2022/07/16 04:21:05;;;;;;;0.40;0.30;;;15.80;99.90;;;;;;4771134;29;20058;-87
2022/07/16 04:23:33;;;;;;;0.50;0.40;;;15.80;99.90;;;;;;4771152;29;20059;-87
2022/07/16 04:26:00;;;;;;;1.48;0.47;;;15.80;99.90;;;;;;4770519;29;20047;-86
2022/07/16 04:28:27;;;;;;;0.50;0.30;;;15.80;99.90;;;;;;4784672;29;20063;-86
2022/07/16 04:30:54;;;;;;;0.35;0.32;;;15.70;99.90;;;;;;4767608;29;20388;-87
2022/07/16 04:33:21;;;;;;;0.40;0.30;;;15.70;99.90;;;;;;4767125;30;20062;-87
2022/07/16 04:35:48;;;;;;;0.45;0.30;;;15.70;99.90;;;;;;4770763;29;20061;-87
2022/07/16 04:38:16;;;;;;;0.55;0.40;;;15.70;99.90;;;;;;4785395;29;20058;-86
2022/07/16 04:40:43;;;;;;;0.70;0.43;;;15.70;99.90;;;;;;4753361;30;20118;-86
2022/07/16 04:43:10;;;;;;;0.30;0.30;;;15.70;99.90;;;;;;4766315;30;20082;-86
2022/07/16 04:45:37;;;;;;;0.63;0.38;;;15.70;99.90;;;;;;4772891;29;20054;-86
2022/07/16 04:48:05;;;;;;;0.80;0.30;;;15.70;99.90;;;;;;4799065;29;20062;-86
2022/07/16 04:50:33;;;;;;;0.20;0.20;;;15.70;99.90;;;;;;4771008;29;20062;-87
2022/07/16 04:53:00;;;;;;;0.50;0.30;;;15.70;99.90;;;;;;4771607;29;20063;-87
2022/07/16 04:55:27;;;;;;;0.20;0.20;;;15.60;99.90;;;;;;4771100;29;20063;-88
2022/07/16 04:57:54;;;;;;;0.20;0.20;;;15.60;99.90;;;;;;4786444;29;20080;-87
2022/07/16 05:00:25;;;;;;;0.55;0.40;;;15.70;99.90;;;;;;4768702;30;20528;-86
2022/07/16 05:02:58;;;;;;;0.20;0.20;;;15.70;99.90;;;;;;4784081;29;20057;-87
2022/07/16 05:05:29;;;;;;;0.40;0.40;;;15.80;99.90;;;;;;4760727;29;20066;-87
2022/07/16 05:07:56;;;;;;;0.10;0.10;;;15.80;99.90;;;;;;4767040;29;20516;-87
2022/07/16 05:10:24;;;;;;;0.30;0.30;;;15.90;99.90;;;;;;4769769;29;20055;-87
2022/07/16 05:12:51;;;;;;;0.40;0.30;;;15.90;99.90;;;;;;4767111;29;20070;-87
2022/07/16 05:15:19;;;;;;;1.58;0.40;;;15.90;99.90;;;;;;4767384;29;20054;-87
2022/07/16 05:17:46;;;;;;;0.50;0.32;;;15.90;99.90;;;;;;4770094;30;20116;-87
2022/07/16 05:20:13;;;;;;;0.47;0.30;;;15.90;99.90;;;;;;4786032;29;20392;-87
2022/07/16 05:22:40;;;;;;;0.30;0.30;;;15.90;99.90;;;;;;4788887;29;20116;-86
2022/07/16 05:25:08;;;;;;;0.38;0.32;;;15.90;99.90;;;;;;4773377;29;20055;-86
2022/07/16 05:27:35;;;;;;;0.20;0.20;;;15.90;99.90;;;;;;4782311;29;20077;-88
2022/07/16 05:30:03;;;;;;;0.40;0.30;;;16.00;99.90;;;;;;4781243;29;20055;-87
2022/07/16 05:32:37;;;;;;;0.25;0.25;;;16.10;99.90;;;;;;4772423;29;20130;-87
2022/07/16 05:35:05;;;;;;;0.20;0.20;;;16.10;99.90;;;;;;4773604;29;20460;-87
2022/07/16 05:37:32;;;;;;;0.45;0.30;;;16.10;99.90;;;;;;4773368;29;20557;-88
2022/07/16 05:39:59;;;;;;;1.58;0.30;;;16.20;99.90;;;;;;4798836;29;20124;-86
2022/07/16 05:42:26;;;;;;;0.68;0.28;;;16.20;99.90;;;;;;4768848;29;20063;-89
2022/07/16 05:44:53;;;;;;;0.13;0.10;;;16.20;99.90;;;;;;4785070;29;20063;-90
2022/07/16 05:47:20;;;;;;;0.98;0.40;;;16.20;99.90;;;;;;4758742;30;20070;-90
2022/07/16 05:49:47;;;;;;;0.45;0.30;;;16.20;99.90;;;;;;4782069;29;20556;-89
2022/07/16 05:52:14;;;;;;;0.20;0.20;;;16.20;99.90;;;;;;4769862;29;20059;-89
2022/07/16 05:54:41;;;;;;;0.47;0.30;;;16.20;99.90;;;;;;4782889;29;20047;-88
2022/07/16 05:57:08;;;;;;;0.13;0.13;;;16.30;99.90;;;;;;4763916;30;20366;-86
2022/07/16 05:59:35;;;;;;;0.63;0.40;;;16.30;99.90;;;;;;4774884;30;20058;-86
2022/07/16 06:02:02;;;;;;;0.38;0.38;;;16.40;99.90;;;;;;4768560;29;20349;-84
2022/07/16 06:04:29;;;;;;;0.40;0.30;;;16.50;99.90;;;;;;4801560;29;20054;-86
2022/07/16 06:06:56;;;;;;;0.43;0.30;;;16.60;99.90;;;;;;4777612;30;20063;-87
2022/07/16 06:09:23;;;;;;;0.30;0.30;;;16.60;99.90;;;;;;4777161;29;20065;-86
2022/07/16 06:11:50;;;;;;;0.35;0.32;;;16.70;99.90;;;;;;4769995;29;20224;-86
2022/07/16 06:14:17;;;;;;;0.40;0.22;;;16.70;99.90;;;;;;4773512;29;20054;-86
2022/07/16 06:16:44;;;;;;;0.30;0.20;;;16.80;99.90;;;;;;4777914;29;20338;-86
2022/07/16 06:19:11;;;;;;;0.15;0.10;;;16.80;99.90;;;;;;4766031;29;20059;-87
2022/07/16 06:21:39;;;;;;;0.20;0.20;;;16.90;99.90;;;;;;4803729;29;20081;-86
2022/07/16 06:24:06;;;;;;;0.30;0.25;;;16.90;99.90;;;;;;4791477;29;20087;-86
2022/07/16 06:26:33;;;;;;;0.30;0.20;;;17.00;99.90;;;;;;4795989;29;20054;-86
2022/07/16 06:29:00;;;;;;;0.28;0.28;;;17.00;99.90;;;;;;4780583;29;20067;-86
2022/07/16 06:31:27;;;;;;;0.30;0.25;;;17.10;99.90;;;;;;4785012;29;20120;-86
2022/07/16 06:33:54;;;;;;;0.30;0.30;;;17.20;99.90;;;;;;4787484;29;20066;-86
2022/07/16 06:36:21;;;;;;;0.35;0.30;;;17.10;99.90;;;;;;4769586;29;20112;-88
2022/07/16 06:38:49;;;;;;;0.65;0.50;;;17.10;99.90;;;;;;4785309;29;20090;-86
2022/07/16 06:41:17;;;;;;;0.60;0.38;;;17.10;99.90;;;;;;4794232;29;20074;-86
2022/07/16 06:43:44;;;;;;;0.63;0.30;;;17.20;99.90;;;;;;4794683;29;20063;-87
2022/07/16 06:46:11;;;;;;;0.40;0.28;;;17.20;99.90;;;;;;4802031;29;20062;-87
2022/07/16 06:48:38;;;;;;;0.20;0.20;;;17.30;99.90;;;;;;4782219;30;20051;-86
2022/07/16 06:51:05;;;;;;;0.10;0.10;;;17.30;99.90;;;;;;4784136;29;20530;-86
2022/07/16 06:53:36;;;;;;;0.20;0.20;;;17.40;99.90;;;;;;4781778;29;20054;-87
2022/07/16 06:56:04;;;;;;;0.75;0.40;;;17.50;99.90;;;;;;4770038;29;20617;-86
2022/07/16 06:58:31;;;;;;;0.30;0.30;;;17.50;99.90;;;;;;4769222;29;20062;-87
2022/07/16 07:00:58;;;;;;;0.35;0.20;;;17.60;99.90;;;;;;4752997;30;20507;-86
2022/07/16 07:03:25;;;;;;;0.38;0.30;;;17.60;99.90;;;;;;4776488;29;20062;-86
2022/07/16 07:05:52;;;;;;;0.10;0.10;;;17.60;99.90;;;;;;4783675;29;20142;-86
2022/07/16 07:08:19;;;;;;;0.20;0.20;;;17.70;99.90;;;;;;4769341;29;20097;-91
2022/07/16 07:10:47;;;;;;;0.35;0.20;;;17.70;99.90;;;;;;4785098;29;20099;-88
2022/07/16 07:13:14;;;;;;;0.20;0.20;;;17.90;99.90;;;;;;4775527;29;20070;-86
2022/07/16 07:15:42;;;;;;;0.20;0.20;;;17.90;99.90;;;;;;4756844;29;20115;-87
2022/07/16 07:18:09;;;;;;;0.20;0.20;;;18.00;99.90;;;;;;4772964;29;20058;-86
2022/07/16 07:20:36;;;;;;;0.32;0.32;;;18.00;99.90;;;;;;4779767;29;20110;-87
2022/07/16 07:23:04;;;;;;;0.95;0.20;;;18.00;99.90;;;;;;4776179;29;20088;-86
2022/07/16 07:25:31;;;;;;;0.30;0.30;;;18.10;99.90;;;;;;4774835;29;20050;-86
2022/07/16 07:27:57;;;;;;;0.40;0.40;;;18.10;99.90;;;;;;4774002;29;20067;-88
2022/07/16 07:30:24;;;;;;;0.60;0.50;;;18.10;99.90;;;;;;4777121;29;20404;-88
2022/07/16 07:32:51;;;;;;;0.22;0.20;;;18.20;99.90;;;;;;4771587;29;20199;-86
2022/07/16 07:35:18;;;;;;;0.25;0.25;;;18.20;99.90;;;;;;4767692;29;20073;-86
2022/07/16 07:37:46;;;;;;;0.20;0.20;;;18.30;99.90;;;;;;4783186;29;20066;-86
2022/07/16 07:40:13;;;;;;;0.22;0.22;;;18.20;99.90;;;;;;4768783;29;20061;-88
2022/07/16 07:42:40;;;;;;;0.57;0.17;;;18.30;99.90;;;;;;4780715;29;20063;-87
2022/07/16 07:45:08;;;;;;;0.30;0.30;;;18.40;99.90;;;;;;4768707;29;20076;-87
2022/07/16 07:47:35;;;;;;;1.05;0.30;;;18.50;99.90;;;;;;4766371;29;20069;-87
2022/07/16 07:50:04;;;;;;;0.30;0.30;;;18.50;99.90;;;;;;4766322;29;20247;-87
2022/07/16 07:52:30;;;;;;;0.20;0.20;;;18.60;99.90;;;;;;4766438;29;20168;-86
2022/07/16 07:55:01;;;;;;;0.32;0.28;;;18.60;99.90;;;;;;4763351;30;20131;-89
2022/07/16 07:57:28;;;;;;;0.20;0.20;;;18.70;99.90;;;;;;4772369;29;20050;-87
2022/07/16 07:59:55;;;;;;;0.10;0.10;;;18.70;99.90;;;;;;4771909;29;20059;-86
2022/07/16 08:02:22;;;;;;;0.20;0.20;;;18.70;99.90;;;;;;4771989;29;20058;-86
2022/07/16 08:04:49;;;;;;;0.20;0.20;;;18.80;99.90;;;;;;4769767;29;20186;-87
2022/07/16 08:07:16;;;;;;;0.52;0.30;;;18.90;99.90;;;;;;4766014;30;20062;-88
2022/07/16 08:09:44;;;;;;;0.13;0.13;;;18.90;99.90;;;;;;4767328;29;20424;-87
2022/07/16 08:12:11;;;;;;;0.70;0.30;;;18.90;99.90;;;;;;4782378;29;20058;-87
2022/07/16 08:14:38;;;;;;;0.20;0.20;;;18.90;99.90;;;;;;4770365;30;20352;-88
2022/07/16 08:17:06;;;;;;;0.38;0.38;;;18.90;99.90;;;;;;4776553;29;20063;-88
2022/07/16 08:19:34;;;;;;;0.20;0.20;;;18.90;99.90;;;;;;4768598;29;20062;-87
2022/07/16 08:22:01;;;;;;;0.30;0.30;;;19.00;99.90;;;;;;4764422;29;20059;-87
2022/07/16 08:27:15;;;;;;;0.20;0.20;;;19.20;99.90;;;;;;4777708;29;20070;-87
2022/07/16 08:29:42;;;;;;;0.30;0.30;;;19.20;99.90;;;;;;4782869;29;20468;-88
2022/07/16 08:32:09;;;;;;;0.63;0.30;;;19.30;99.90;;;;;;4781242;29;20070;-87
2022/07/16 08:34:37;;;;;;;0.22;0.17;;;19.30;99.90;;;;;;4776418;29;20050;-88
2022/07/16 08:37:08;;;;;;;0.30;0.20;;;19.40;99.90;;;;;;4781897;29;20055;-88
2022/07/16 08:39:42;;;;;;;0.25;0.20;;;19.40;99.90;;;;;;4782173;29;20063;-86
2022/07/16 08:42:12;;;;;;;0.20;0.13;;;19.40;99.90;;;;;;4781844;29;20058;-88
2022/07/16 08:44:40;;;;;;;0.40;0.30;;;19.50;99.90;;;;;;4778737;30;20062;-87
2022/07/16 08:47:09;;;;;;;0.55;0.40;;;19.70;99.90;;;;;;4764300;30;20059;-87
2022/07/16 08:49:37;;;;;;;0.40;0.35;;;19.70;99.90;;;;;;4761548;29;20059;-87
2022/07/16 08:52:06;;;;;;;0.40;0.30;;;19.70;99.90;;;;;;4767613;29;20542;-88
2022/07/16 08:54:33;;;;;;;0.40;0.40;;;19.80;99.90;;;;;;4767939;30;20059;-87
2022/07/16 08:57:00;;;;;;;0.32;0.20;;;19.80;99.90;;;;;;4774751;29;20376;-88
2022/07/16 08:59:27;;;;;;;0.17;0.17;;;19.90;99.90;;;;;;4775857;30;20051;-87
2022/07/16 09:01:55;;;;;;;0.30;0.30;;;19.90;99.90;;;;;;4779087;29;20602;-87
2022/07/16 09:04:22;;;;;;;0.50;0.40;;;20.00;99.90;;;;;;4757304;29;20081;-87
2022/07/16 09:06:49;;;;;;;0.43;0.28;;;19.90;99.90;;;;;;4774897;30;20391;-87
2022/07/16 09:09:16;;;;;;;0.30;0.30;;;20.00;99.90;;;;;;4775999;29;20090;-87
2022/07/16 09:11:43;;;;;;;0.22;0.20;;;20.10;99.90;;;;;;4766198;29;20058;-87
2022/07/16 09:14:13;;;;;;;0.30;0.30;;;20.20;99.90;;;;;;4781413;29;20062;-88
2022/07/16 09:16:41;;;;;;;0.10;0.10;;;20.30;99.90;;;;;;4780271;29;20065;-87
2022/07/16 09:19:10;;;;;;;0.20;0.20;;;20.40;99.90;;;;;;4780543;29;20066;-87
2022/07/16 09:21:58;;;;;;;0.28;0.28;;;20.50;99.90;;;;;;4783400;29;20480;-89
2022/07/16 09:24:38;;;;;;;0.20;0.20;;;20.40;99.90;;;;;;4792694;29;20572;-88
2022/07/16 09:27:10;;;;;;;0.20;0.20;;;20.50;99.90;;;;;;4777908;29;20074;-90
2022/07/16 09:29:46;;;;;;;0.30;0.30;;;20.60;99.90;;;;;;4787994;29;20327;-89
2022/07/16 09:32:42;;;;;;;0.40;0.30;;;20.70;99.40;;;;;;4756643;29;20607;-89
2022/07/16 09:35:11;;;;;;;0.30;0.30;;;20.80;99.90;;;;;;4776623;29;20058;-89
2022/07/16 09:37:57;;;;;;;0.20;0.20;;;20.90;99.90;;;;;;4772200;29;20086;-88
2022/07/16 09:40:41;;;;;;;0.60;0.50;;;20.90;99.90;;;;;;4771313;29;20054;-89
2022/07/16 09:43:11;;;;;;;0.30;0.20;;;21.00;99.90;;;;;;4771054;29;20058;-89
2022/07/16 09:45:43;;;;;;;0.20;0.20;;;21.00;99.70;;;;;;4800812;29;20059;-89
2022/07/16 09:48:24;;;;;;;1.48;0.50;;;21.10;98.60;;;;;;4773649;29;20519;-89
2022/07/16 09:50:51;;;;;;;0.45;0.40;;;21.20;98.50;;;;;;4788719;29;20088;-89
2022/07/16 09:53:20;;;;;;;0.40;0.40;;;21.30;98.40;;;;;;4781539;29;20070;-89
2022/07/16 09:56:07;;;;;;;0.50;0.50;;;21.40;97.80;;;;;;4790102;29;20391;-89
2022/07/16 09:58:35;;;;;;;0.55;0.30;;;21.60;97.30;;;;;;4775506;29;20063;-90
2022/07/16 10:01:03;;;;;;;0.65;0.40;;;21.80;97.40;;;;;;4774513;29;20154;-89
2022/07/16 10:03:33;;;;;;;0.30;0.30;;;21.80;97.60;;;;;;4774161;29;20086;-90
2022/07/16 10:06:01;;;;;;;0.20;0.20;;;21.90;97.20;;;;;;4774997;29;20550;-90
2022/07/16 10:08:28;;;;;;;0.20;0.15;;;21.90;96.00;;;;;;4775034;29;20058;-89
2022/07/16 10:10:56;;;;;;;0.50;0.30;;;21.90;96.30;;;;;;4790454;29;20059;-89
2022/07/16 10:13:27;;;;;;;0.40;0.40;;;21.90;95.30;;;;;;4788955;29;20065;-89
2022/07/16 10:15:55;;;;;;;0.40;0.32;;;22.10;96.20;;;;;;4775126;29;20059;-90
2022/07/16 10:18:32;;;;;;;0.30;0.30;;;22.20;96.30;;;;;;4775191;29;20141;-90
2022/07/16 10:21:20;;;;;;;0.17;0.17;;;22.40;94.90;;;;;;4789664;29;20160;-90
2022/07/16 10:24:15;;;;;;;0.32;0.20;;;22.50;94.30;;;;;;4789169;29;20062;-90
2022/07/16 10:26:42;;;;;;;0.20;0.20;;;22.60;94.60;;;;;;4790985;29;20058;-89
2022/07/16 10:29:10;;;;;;;0.50;0.38;;;22.70;93.80;;;;;;4775613;29;20059;-89
2022/07/16 10:31:40;;;;;;;0.20;0.20;;;22.70;93.90;;;;;;4773507;29;20059;-90
2022/07/16 10:34:14;;;;;;;0.20;0.20;;;22.70;93.80;;;;;;4790329;29;20149;-90
2022/07/16 10:36:45;;;;;;;0.63;0.60;;;22.80;93.40;;;;;;4806107;29;20050;-89
2022/07/16 10:39:15;;;;;;;0.40;0.40;;;22.80;93.30;;;;;;4789518;29;20073;-89
2022/07/16 10:41:54;;;;;;;1.75;0.98;;;22.90;93.60;;;;;;4776828;29;20063;-89
2022/07/16 10:44:23;;;;;;;1.98;0.95;;;23.10;97.00;;;;;;4773521;29;20062;-89
2022/07/16 10:46:57;;;;;;;1.48;1.10;;;23.10;93.60;;;;;;4777046;29;20051;-89
2022/07/16 10:49:25;;;;;;;3.63;1.90;;;23.20;95.50;;;;;;4796738;29;20054;-89
2022/07/16 10:51:57;;;;;;;10.70;6.47;;;23.30;98.20;;;;;;4797357;29;20080;-89
2022/07/16 10:54:26;;;;;;;;;;;23.50;99.90;;;;;;4778589;29;20062;-89
2022/07/16 10:56:54;;;;;;;8.18;5.18;;;23.80;99.40;;;;;;4790602;29;19982;-87
2022/07/16 10:59:26;;;;;;;35.20;21.65;;;24.30;99.90;;;;;;4775812;29;20427;-89
2022/07/16 11:01:54;;;;;;;10.68;8.23;;;23.90;99.90;;;;;;4774854;29;20414;-89
2022/07/16 11:04:34;;;;;;;6.57;5.10;;;23.80;98.10;;;;;;4771515;29;20657;-88
2022/07/16 11:07:12;;;;;;;3.50;2.53;;;23.60;99.90;;;;;;4789356;29;20074;-89
2022/07/16 11:09:42;;;;;;;2.85;1.70;;;23.50;94.20;;;;;;4771567;30;20150;-88
2022/07/16 11:12:11;;;;;;;2.38;1.42;;;23.40;93.60;;;;;;4771312;29;20063;-89
2022/07/16 11:14:39;;;;;;;1.50;1.00;;;23.40;97.60;;;;;;4786742;29;20414;-89
2022/07/16 11:17:06;;;;;;;1.10;0.80;;;23.50;99.80;;;;;;4799447;29;20123;-88
2022/07/16 11:19:43;;;;;;;0.60;0.50;;;23.60;96.60;;;;;;4780657;29;20063;-89
2022/07/16 11:22:10;;;;;;;0.65;0.50;;;23.80;99.90;;;;;;4788265;29;20065;-89
2022/07/16 11:24:52;;;;;;;0.20;0.20;;;23.80;94.20;;;;;;4773859;29;20062;-89
2022/07/16 11:27:25;;;;;;;0.30;0.30;;;23.90;91.50;;;;;;4773212;29;20054;-89
2022/07/16 11:30:05;;;;;;;0.40;0.40;;;23.90;96.70;;;;;;4773198;29;20104;-89
2022/07/16 11:32:40;;;;;;;0.40;0.38;;;24.00;95.00;;;;;;4771756;29;20058;-89
2022/07/16 11:35:08;;;;;;;0.70;0.50;;;24.40;96.40;;;;;;4795500;29;20062;-90
2022/07/16 11:37:49;;;;;;;0.90;0.60;;;24.70;93.50;;;;;;4782364;29;20061;-89
2022/07/16 11:40:35;;;;;;;0.77;0.50;;;25.10;93.00;;;;;;4765871;30;20067;-90
2022/07/16 11:43:02;;;;;;;0.20;0.20;;;25.60;90.90;;;;;;4781167;29;20051;-89
2022/07/16 11:45:35;;;;;;;0.17;0.17;;;25.90;93.40;;;;;;4784462;29;20062;-90
2022/07/16 11:48:15;;;;;;;0.40;0.30;;;26.10;92.90;;;;;;4781441;29;20482;-90
2022/07/16 11:50:43;;;;;;;0.30;0.30;;;26.40;84.10;;;;;;4765812;29;20089;-89
2022/07/16 11:53:11;;;;;;;0.30;0.30;;;26.70;83.10;;;;;;4765942;29;20500;-90
2022/07/16 11:55:43;;;;;;;0.45;0.40;;;27.00;90.60;;;;;;4762679;29;20059;-90
2022/07/16 11:58:15;;;;;;;0.38;0.38;;;26.90;81.60;;;;;;4764801;29;20408;-90
2022/07/16 12:00:45;;;;;;;;;;;27.20;90.20;;;;;;4765706;29;20055;-90
2022/07/16 12:03:12;;;;;;;0.40;0.40;;;27.50;78.10;;;;;;4796279;29;20389;-90
2022/07/16 12:05:39;;;;;;;0.40;0.40;;;27.60;81.00;;;;;;4780817;29;20051;-89
2022/07/16 12:08:08;;;;;;;0.60;0.45;;;27.90;83.40;;;;;;4771396;29;20062;-90
2022/07/16 12:11:03;;;;;;;0.30;0.30;;;28.20;74.40;;;;;;4784033;29;20505;-91
2022/07/16 12:13:30;;;;;;;0.40;0.40;;;28.50;73.30;;;;;;4797477;29;20058;-91
2022/07/16 12:15:59;;;;;;;0.30;0.30;;;28.70;71.40;;;;;;4786373;29;20426;-90
2022/07/16 12:18:27;;;;;;;0.73;0.52;;;28.70;72.20;;;;;;4768261;29;20059;-90
2022/07/16 12:20:55;;;;;;;0.30;0.30;;;28.80;71.50;;;;;;4769795;29;20050;-90
2022/07/16 12:23:37;;;;;;;0.40;0.40;;;28.90;70.50;;;;;;4766286;30;20059;-90
2022/07/16 12:26:06;;;;;;;0.30;0.30;;;29.10;71.10;;;;;;4772900;29;20112;-91
2022/07/16 12:28:33;;;;;;;0.45;0.45;;;29.30;74.00;;;;;;4774499;29;20047;-88
2022/07/16 12:31:07;;;;;;;0.30;0.30;;;29.70;74.50;;;;;;4787629;29;20086;-89
2022/07/16 12:33:34;;;;;;;0.35;0.30;;;30.10;68.30;;;;;;4794901;29;20068;-89
2022/07/16 12:36:12;;;;;;;0.40;0.40;;;30.30;72.00;;;;;;4791468;29;20538;-92
2022/07/16 12:38:51;;;;;;;0.30;0.30;;;30.50;66.90;;;;;;4754266;30;20086;-91
2022/07/16 12:41:24;;;;;;;0.50;0.50;;;31.00;73.60;;;;;;4792018;29;20153;-90
2022/07/16 12:43:55;;;;;;;0.28;0.28;;;31.20;65.60;;;;;;4789619;30;20070;-89
2022/07/16 12:46:25;;;;;;;0.50;0.50;;;31.20;64.90;;;;;;4782708;30;20158;-90
2022/07/16 12:48:58;;;;;;;0.45;0.30;;;31.20;66.00;;;;;;4776042;29;20074;-90
2022/07/16 12:51:28;;;;;;;0.50;0.40;;;31.40;64.20;;;;;;4777934;29;20057;-90
2022/07/16 12:53:56;;;;;;;0.40;0.40;;;31.40;63.10;;;;;;4769289;30;20059;-91
2022/07/16 12:59:08;;;;;;;0.30;0.30;;;32.20;62.00;;;;;;4781955;30;20082;-90
2022/07/16 13:01:36;;;;;;;0.77;0.70;;;32.50;60.70;;;;;;4767065;30;20062;-90
2022/07/16 13:04:04;;;;;;;0.70;0.70;;;32.30;59.90;;;;;;4754108;30;20055;-91
2022/07/16 13:06:32;;;;;;;0.50;0.50;;;32.20;60.20;;;;;;4771873;30;20074;-89
2022/07/16 13:08:59;;;;;;;0.50;0.50;;;32.40;61.40;;;;;;4773522;30;20533;-91
2022/07/16 13:11:27;;;;;;;0.45;0.45;;;32.60;63.30;;;;;;4770917;30;20059;-92
2022/07/16 13:13:54;;;;;;;0.40;0.40;;;33.00;58.30;;;;;;4767849;30;20477;-91
2022/07/16 13:16:22;;;;;;;0.40;0.40;;;33.40;58.70;;;;;;4752818;30;20422;-90
2022/07/16 13:18:50;;;;;;;0.32;0.32;;;33.80;58.70;;;;;;4767904;30;20123;-90
2022/07/16 13:21:18;;;;;;;0.30;0.30;;;34.10;61.80;;;;;;4769444;30;20098;-90
2022/07/16 13:23:45;;;;;;;0.40;0.40;;;34.40;61.10;;;;;;4769795;30;20116;-90
2022/07/16 13:26:12;;;;;;;0.20;0.20;;;34.80;60.40;;;;;;4768336;30;20063;-90
2022/07/16 13:28:39;;;;;;;0.30;0.30;;;35.10;58.40;;;;;;4780650;30;20499;-89
2022/07/16 13:31:06;;;;;;;0.30;0.30;;;35.60;56.00;;;;;;4767034;30;20541;-89
2022/07/16 13:33:34;;;;;;;0.45;0.32;;;35.80;54.30;;;;;;4766841;30;20323;-90
2022/07/16 13:36:01;;;;;;;0.57;0.50;;;36.10;58.80;;;;;;4781649;30;20151;-91